Time;durP1;ratioP1;P1;durP2;ratioP2;P2;SDS_P1;SDS_P2;PMS_P1;PMS_P2;Temp;Humidity;BMP_temperature;BMP_pressure;BME280_temperature;BME280_humidity;BME280_pressure;Samples;Min_cycle;Max_cycle;Signal;HPM_P1;HPM_P2
2023/03/18 00:00:33;;;;;;;1.70;1.23;;;;;;;13.15;49.19;97631.38;5073658;28;20204;-72
2023/03/18 00:02:59;;;;;;;2.90;1.40;;;;;;;13.11;49.01;97627.56;5073827;28;20256;-72
2023/03/18 00:05:26;;;;;;;5.03;1.50;;;;;;;13.14;48.87;97634.28;5073178;28;20204;-72
2023/03/18 00:07:53;;;;;;;2.40;1.30;;;;;;;13.13;49.19;97636.16;5073535;28;20299;-72
2023/03/18 00:10:19;;;;;;;1.97;1.20;;;;;;;13.02;49.34;97630.91;5073529;28;20212;-72
2023/03/18 00:12:46;;;;;;;2.00;1.30;;;;;;;12.93;49.58;97627.81;5073173;28;20235;-72
2023/03/18 00:15:15;;;;;;;2.90;1.23;;;;;;;12.86;49.81;97632.50;5073156;28;20230;-72
2023/03/18 00:17:42;;;;;;;1.77;1.43;;;;;;;12.92;49.79;97631.53;5073096;28;20215;-72
2023/03/18 00:20:11;;;;;;;3.17;1.30;;;;;;;12.88;49.56;97633.06;5073138;28;20756;-72
2023/03/18 00:22:39;;;;;;;2.53;1.30;;;;;;;12.74;50.24;97628.28;5073215;28;20224;-72
2023/03/18 00:25:08;;;;;;;1.43;1.10;;;;;;;12.64;50.88;97628.13;5073417;28;20200;-72
2023/03/18 00:27:35;;;;;;;1.70;1.20;;;;;;;12.59;50.94;97630.72;5073311;28;20234;-72
2023/03/18 00:30:03;;;;;;;1.33;1.10;;;;;;;12.52;51.45;97638.88;5073317;28;20212;-72
2023/03/18 00:32:30;;;;;;;1.53;1.20;;;;;;;12.41;51.48;97639.75;5072980;28;20232;-72
2023/03/18 00:34:57;;;;;;;2.90;1.47;;;;;;;12.62;50.43;97648.91;5073448;28;20322;-72
2023/03/18 00:37:29;;;;;;;3.33;1.20;;;;;;;12.65;50.39;97651.91;5073339;28;20200;-72
2023/03/18 00:39:58;;;;;;;1.17;1.07;;;;;;;12.63;50.55;97656.69;5073236;28;20211;-72
2023/03/18 00:42:24;;;;;;;2.97;1.23;;;;;;;12.73;50.18;97654.19;5073202;28;20234;-72
2023/03/18 00:44:51;;;;;;;3.30;1.20;;;;;;;12.60;50.58;97662.47;5073151;28;20201;-72
2023/03/18 00:47:17;;;;;;;2.20;1.30;;;;;;;12.67;50.39;97665.00;5072957;28;20300;-72
2023/03/18 00:49:43;;;;;;;1.23;1.10;;;;;;;12.66;50.25;97666.84;5072892;28;20219;-72
2023/03/18 00:52:10;;;;;;;2.90;1.20;;;;;;;12.70;50.10;97664.53;5077075;28;20238;-72
2023/03/18 00:54:37;;;;;;;2.37;1.10;;;;;;;12.73;49.76;97669.34;5076739;28;20207;-72
2023/03/18 00:57:04;;;;;;;1.57;1.20;;;;;;;12.65;49.67;97665.22;5076740;28;20668;-73
2023/03/18 00:59:32;;;;;;;3.03;1.60;;;;;;;12.57;50.04;97664.84;5076931;28;20266;-72
2023/03/18 01:01:58;;;;;;;2.63;1.33;;;;;;;12.57;50.17;97668.28;5076913;28;20227;-72
2023/03/18 01:04:24;;;;;;;1.37;0.97;;;;;;;12.53;50.43;97672.47;5076576;28;20218;-72
2023/03/18 01:06:51;;;;;;;1.40;1.10;;;;;;;12.49;50.40;97670.56;5076530;28;20210;-72
2023/03/18 01:09:17;;;;;;;4.00;1.10;;;;;;;12.44;50.70;97670.47;5076994;28;20213;-72
2023/03/18 01:11:44;;;;;;;2.10;1.10;;;;;;;12.32;50.83;97659.84;5076659;28;20204;-72
2023/03/18 01:14:11;;;;;;;3.73;1.07;;;;;;;12.23;51.26;97668.47;5076660;28;20206;-72
2023/03/18 01:16:37;;;;;;;2.87;1.27;;;;;;;12.19;51.69;97673.47;5076388;28;20296;-72
2023/03/18 01:19:04;;;;;;;2.53;1.20;;;;;;;12.17;51.15;97672.88;5076747;28;20209;-72
2023/03/18 01:21:30;;;;;;;1.97;1.50;;;;;;;12.02;53.25;97667.28;5076450;28;20257;-72
2023/03/18 01:23:59;;;;;;;1.67;1.30;;;;;;;12.15;51.26;97671.50;5076385;28;20223;-72
2023/03/18 01:26:26;;;;;;;2.27;1.10;;;;;;;12.25;50.69;97672.50;5076279;28;20204;-72
2023/03/18 01:28:52;;;;;;;1.43;1.13;;;;;;;12.35;49.88;97670.03;5077032;28;20211;-72
2023/03/18 01:31:18;;;;;;;3.67;1.40;;;;;;;12.37;49.80;97669.78;5076610;28;20541;-72
2023/03/18 01:33:46;;;;;;;4.10;1.13;;;;;;;12.45;49.61;97664.91;5075951;28;20231;-72
2023/03/18 01:36:14;;;;;;;2.40;1.20;;;;;;;12.24;51.42;97659.41;5075893;28;20593;-72
2023/03/18 01:38:41;;;;;;;1.20;1.10;;;;;;;12.35;50.36;97651.34;5076569;28;20212;-72
2023/03/18 01:41:08;;;;;;;2.83;1.10;;;;;;;12.30;50.64;97653.16;5076243;28;20215;-72
2023/03/18 01:43:37;;;;;;;1.67;1.10;;;;;;;12.26;50.59;97655.47;5075828;28;20235;-72
2023/03/18 01:46:34;;;;;;;3.50;1.07;;;;;;;12.30;50.38;97650.47;5075833;28;20553;-72
2023/03/18 01:49:04;;;;;;;2.10;1.00;;;;;;;12.14;51.21;97659.22;5076050;28;20252;-72
2023/03/18 01:51:31;;;;;;;2.33;1.00;;;;;;;12.15;51.89;97653.66;5076177;28;20211;-72
2023/03/18 01:54:00;;;;;;;1.57;1.23;;;;;;;12.00;52.33;97652.56;5075964;28;20264;-72
2023/03/18 01:56:26;;;;;;;2.00;1.20;;;;;;;12.04;51.82;97657.22;5075888;28;20228;-72
2023/03/18 01:58:56;;;;;;;1.47;1.13;;;;;;;12.07;51.17;97653.25;5075420;28;20208;-72
2023/03/18 02:01:35;;;;;;;1.50;1.20;;;;;;;12.24;50.39;97667.41;5075345;28;20239;-72
2023/03/18 02:04:04;;;;;;;1.73;1.20;;;;;;;12.13;51.32;97654.97;5075554;28;20200;-72
2023/03/18 02:06:32;;;;;;;1.47;1.10;;;;;;;12.04;51.51;97654.53;5075616;28;20208;-72
2023/03/18 02:08:59;;;;;;;1.50;1.10;;;;;;;12.11;50.96;97660.53;5075384;28;20670;-72
2023/03/18 02:11:27;;;;;;;3.57;1.20;;;;;;;12.14;51.44;97657.38;5075671;28;20210;-72
2023/03/18 02:13:54;;;;;;;1.77;1.10;;;;;;;12.13;52.14;97658.44;5075034;28;20597;-72
2023/03/18 02:16:44;;;;;;;2.23;1.07;;;;;;;12.14;51.17;97648.56;5075048;28;20230;-72
2023/03/18 02:19:49;;;;;;;1.57;1.20;;;;;;;12.05;51.73;97645.50;5075325;28;20214;-72
2023/03/18 02:22:25;;;;;;;2.00;1.23;;;;;;;12.06;51.45;97649.78;5068317;28;20231;-72
2023/03/18 02:25:12;;;;;;;2.60;1.20;;;;;;;12.07;51.56;97646.06;5075257;28;20191;-72
2023/03/18 02:27:44;;;;;;;4.80;1.13;;;;;;;12.04;52.29;97654.53;5071025;28;20690;-72
2023/03/18 02:30:15;;;;;;;3.93;1.30;;;;;;;11.93;52.09;97657.25;5074015;28;20201;-72
2023/03/18 02:32:43;;;;;;;1.83;1.00;;;;;;;11.92;52.50;97659.09;5075091;28;20227;-72
2023/03/18 02:35:11;;;;;;;1.60;1.20;;;;;;;11.87;52.41;97653.66;5075065;28;20228;-72
2023/03/18 02:37:38;;;;;;;3.17;1.20;;;;;;;11.88;52.27;97652.63;5075143;28;20207;-72
2023/03/18 02:40:17;;;;;;;1.80;1.20;;;;;;;11.98;51.95;97658.13;5075141;28;20204;-72
2023/03/18 02:42:45;;;;;;;2.03;1.30;;;;;;;11.82;52.49;97656.22;5074973;28;20230;-72
2023/03/18 02:45:30;;;;;;;2.50;1.00;;;;;;;11.64;53.79;97656.38;5074872;28;20208;-72
2023/03/18 02:47:59;;;;;;;1.93;1.10;;;;;;;11.64;53.02;97663.56;5074943;28;20218;-72
2023/03/18 02:50:25;;;;;;;3.57;1.20;;;;;;;11.57;54.95;97668.97;5074584;28;20209;-72
2023/03/18 02:52:52;;;;;;;3.47;1.20;;;;;;;11.50;54.27;97667.50;5074869;28;20232;-72
2023/03/18 02:55:18;;;;;;;1.50;0.90;;;;;;;11.39;55.63;97671.00;5074709;28;20710;-72
2023/03/18 02:57:45;;;;;;;1.70;1.10;;;;;;;11.36;55.14;97666.94;5074749;28;20212;-72
2023/03/18 03:00:12;;;;;;;2.43;1.20;;;;;;;11.30;54.96;97672.38;5074720;28;20209;-72
2023/03/18 03:02:38;;;;;;;2.70;1.30;;;;;;;11.31;55.06;97671.34;5074586;28;20225;-72
2023/03/18 03:05:05;;;;;;;1.87;1.27;;;;;;;11.16;56.68;97671.00;5074620;28;20206;-72
2023/03/18 03:07:32;;;;;;;1.67;1.17;;;;;;;11.08;56.17;97675.63;5074525;28;20296;-72
2023/03/18 03:09:58;;;;;;;1.37;1.00;;;;;;;11.08;58.94;97680.94;5074148;28;20205;-72
2023/03/18 03:12:25;;;;;;;5.17;1.50;;;;;;;11.14;56.03;97676.56;5073816;28;20227;-72
2023/03/18 03:14:51;;;;;;;2.47;1.50;;;;;;;11.20;56.38;97678.28;5075001;28;20213;-72
2023/03/18 03:17:17;;;;;;;2.23;1.20;;;;;;;11.30;55.81;97686.47;5074174;28;20277;-72
2023/03/18 03:19:44;;;;;;;3.50;1.40;;;;;;;11.23;57.61;97686.59;5074312;28;20202;-72
2023/03/18 03:22:11;;;;;;;1.47;1.10;;;;;;;11.40;54.91;97694.69;5074245;28;20236;-72
2023/03/18 03:24:37;;;;;;;1.90;1.20;;;;;;;11.43;54.69;97685.47;5074237;28;20567;-72
2023/03/18 03:27:04;;;;;;;1.43;1.00;;;;;;;11.47;54.52;97681.25;5074160;28;20197;-72
2023/03/18 03:29:31;;;;;;;3.53;1.03;;;;;;;11.53;54.48;97686.47;5074025;28;20210;-72
2023/03/18 03:31:57;;;;;;;3.07;1.00;;;;;;;11.42;54.68;97679.31;5073900;28;20426;-72
2023/03/18 03:34:24;;;;;;;1.57;1.10;;;;;;;11.28;55.84;97688.56;5074037;28;20205;-72
2023/03/18 03:36:50;;;;;;;2.20;1.10;;;;;;;11.39;54.87;97686.97;5073946;28;20228;-72
2023/03/18 03:39:17;;;;;;;2.63;1.17;;;;;;;11.35;54.91;97699.91;5073846;28;20202;-72
2023/03/18 03:41:44;;;;;;;1.00;0.90;;;;;;;11.36;55.03;97708.72;5073787;28;20603;-72
2023/03/18 03:44:10;;;;;;;2.17;0.93;;;;;;;11.36;55.39;97708.72;5073522;28;20212;-72
2023/03/18 03:46:37;;;;;;;2.93;1.20;;;;;;;11.08;57.00;97706.72;5073330;28;20665;-72
2023/03/18 03:49:05;;;;;;;2.20;1.07;;;;;;;11.02;57.84;97708.47;5073225;28;20204;-72
2023/03/18 03:51:31;;;;;;;1.80;1.10;;;;;;;10.90;58.25;97706.81;5074006;28;20254;-72
2023/03/18 03:53:58;;;;;;;5.50;1.40;;;;;;;10.70;59.43;97709.81;5073473;28;20232;-72
2023/03/18 03:56:24;;;;;;;1.10;1.00;;;;;;;10.57;60.19;97711.84;5073213;28;20696;-72
2023/03/18 03:58:51;;;;;;;0.80;0.80;;;;;;;10.44;62.71;97709.38;5073591;28;20209;-72
2023/03/18 04:01:17;;;;;;;2.00;1.10;;;;;;;10.30;63.54;97707.94;5073150;28;20206;-72
2023/03/18 04:03:44;;;;;;;1.53;1.20;;;;;;;10.24;64.37;97708.84;5073086;28;20228;-72
2023/03/18 04:06:10;;;;;;;3.60;1.30;;;;;;;10.06;65.40;97715.00;5073317;28;20545;-72
2023/03/18 04:08:37;;;;;;;2.73;1.50;;;;;;;10.00;65.24;97712.41;5073778;28;20205;-72
2023/03/18 04:11:04;;;;;;;2.57;1.87;;;;;;;9.90;66.08;97717.41;5073496;28;20205;-72
2023/03/18 04:13:30;;;;;;;5.60;2.37;;;;;;;9.92;64.84;97710.03;5073566;28;20267;-72
2023/03/18 04:15:57;;;;;;;2.53;1.73;;;;;;;9.86;68.47;97714.38;5074077;28;20224;-73
2023/03/18 04:18:23;;;;;;;5.53;2.13;;;;;;;9.72;70.06;97717.41;5073147;28;20192;-72
2023/03/18 04:20:49;;;;;;;4.80;2.47;;;;;;;9.64;71.98;97715.06;5073427;28;20236;-72
2023/03/18 04:23:16;;;;;;;6.77;2.00;;;;;;;9.57;72.05;97711.66;5073206;28;20225;-72
2023/03/18 04:25:42;;;;;;;3.60;1.80;;;;;;;9.48;74.06;97718.28;5078625;28;20200;-72
2023/03/18 04:28:09;;;;;;;2.33;2.00;;;;;;;9.44;73.32;97715.28;5079596;28;20664;-72
2023/03/18 04:30:35;;;;;;;2.37;1.40;;;;;;;9.46;72.96;97712.41;5079928;28;20208;-72
2023/03/18 04:33:02;;;;;;;3.93;1.60;;;;;;;9.36;74.23;97704.13;5079792;28;20232;-72
2023/03/18 04:35:28;;;;;;;1.67;1.30;;;;;;;9.24;73.01;97713.84;5079500;28;20640;-72
2023/03/18 04:37:55;;;;;;;3.03;1.60;;;;;;;9.27;72.42;97716.88;5080426;28;20200;-72
2023/03/18 04:40:21;;;;;;;3.23;1.37;;;;;;;9.22;72.09;97713.25;5079885;28;20204;-72
2023/03/18 04:42:48;;;;;;;2.43;1.20;;;;;;;9.20;74.26;97710.84;5079746;28;20237;-72
2023/03/18 04:45:16;;;;;;;3.03;1.40;;;;;;;9.16;74.52;97711.47;5079691;28;20667;-72
2023/03/18 04:47:43;;;;;;;8.60;1.80;;;;;;;9.10;75.20;97715.00;5079710;28;20200;-72
2023/03/18 04:50:11;;;;;;;2.13;1.40;;;;;;;9.06;76.22;97711.16;5079830;28;20571;-72
2023/03/18 04:52:38;;;;;;;1.63;1.30;;;;;;;8.98;76.65;97716.72;5079724;28;20231;-72
2023/03/18 04:55:07;;;;;;;5.10;1.53;;;;;;;8.93;75.67;97721.88;5079653;28;20204;-72
2023/03/18 04:57:34;;;;;;;3.13;1.13;;;;;;;8.91;75.82;97726.59;5079216;28;20585;-72
2023/03/18 05:00:01;;;;;;;2.30;1.50;;;;;;;8.76;77.01;97726.06;5079528;28;20208;-72
2023/03/18 05:02:27;;;;;;;1.67;1.10;;;;;;;8.78;75.66;97724.03;5079138;28;20711;-72
2023/03/18 05:04:54;;;;;;;2.77;1.40;;;;;;;8.78;75.96;97721.38;5079680;28;20564;-72
2023/03/18 05:07:20;;;;;;;2.13;1.30;;;;;;;8.67;77.84;97714.13;5079573;28;20318;-72
2023/03/18 05:09:47;;;;;;;1.80;1.20;;;;;;;8.64;77.16;97707.41;5079234;28;20287;-72
2023/03/18 05:12:14;;;;;;;2.17;1.10;;;;;;;8.70;74.08;97711.88;5079540;28;20745;-72
2023/03/18 05:14:42;;;;;;;2.67;1.30;;;;;;;8.79;73.04;97715.06;5079576;28;20644;-72
2023/03/18 05:17:14;;;;;;;1.10;0.97;;;;;;;8.74;75.43;97714.88;5078870;28;20626;-72
2023/03/18 05:19:42;;;;;;;2.17;1.03;;;;;;;8.63;76.94;97724.34;5079202;28;20294;-72
2023/03/18 05:22:09;;;;;;;3.70;1.43;;;;;;;8.52;78.04;97722.38;5079629;28;20228;-72
2023/03/18 05:24:35;;;;;;;3.03;1.20;;;;;;;8.54;77.88;97727.44;5079392;28;20208;-72
2023/03/18 05:27:01;;;;;;;2.67;0.90;;;;;;;8.42;79.29;97727.31;5079655;28;20204;-73
2023/03/18 05:29:28;;;;;;;2.87;1.27;;;;;;;8.47;77.50;97729.34;5079175;28;20204;-72
2023/03/18 05:31:54;;;;;;;1.23;0.90;;;;;;;8.44;76.68;97730.59;5079013;28;20201;-72
2023/03/18 05:34:21;;;;;;;2.43;0.93;;;;;;;8.33;78.73;97733.09;5078994;28;20204;-72
2023/03/18 05:36:48;;;;;;;1.53;1.00;;;;;;;8.37;79.19;97729.00;5076125;28;20587;-72
2023/03/18 05:39:14;;;;;;;3.43;1.13;;;;;;;8.38;77.52;97731.41;5075563;28;20606;-72
2023/03/18 05:41:40;;;;;;;2.23;1.27;;;;;;;8.43;75.82;97736.09;5076433;28;20291;-73
2023/03/18 05:44:07;;;;;;;3.57;1.00;;;;;;;8.39;78.82;97732.25;5075649;28;20200;-72
2023/03/18 05:46:33;;;;;;;3.63;1.40;;;;;;;8.41;77.75;97735.50;5075568;28;20659;-72
2023/03/18 05:49:00;;;;;;;1.87;1.33;;;;;;;8.23;78.61;97733.53;5075668;28;20201;-72
2023/03/18 05:51:26;;;;;;;2.50;1.57;;;;;;;8.34;78.33;97732.06;5075802;28;20278;-72
2023/03/18 05:53:53;;;;;;;4.50;2.70;;;;;;;8.55;79.62;97735.19;5075536;28;20225;-72
2023/03/18 05:56:20;;;;;;;3.03;2.20;;;;;;;8.48;80.70;97730.97;5075502;28;20231;-72
2023/03/18 05:58:46;;;;;;;4.07;2.90;;;;;;;8.46;81.29;97731.16;5075215;28;20212;-72
2023/03/18 06:01:13;;;;;;;5.70;2.80;;;;;;;8.44;82.42;97735.06;5075090;28;20223;-72
2023/03/18 06:03:39;;;;;;;4.43;2.20;;;;;;;8.36;83.35;97728.19;5075518;28;20224;-72
2023/03/18 06:06:07;;;;;;;6.03;3.10;;;;;;;8.35;83.02;97736.31;5075102;28;20692;-72
2023/03/18 06:08:34;;;;;;;5.43;2.70;;;;;;;8.35;84.18;97733.69;5075310;28;20239;-72
2023/03/18 06:11:00;;;;;;;6.47;2.87;;;;;;;8.36;84.88;97737.94;5075412;28;20200;-72
2023/03/18 06:13:27;;;;;;;3.73;2.80;;;;;;;8.26;86.45;97735.78;5075054;28;20710;-72
2023/03/18 06:15:58;;;;;;;4.90;3.17;;;;;;;8.39;85.75;97740.19;5075185;28;20209;-72
2023/03/18 06:18:25;;;;;;;4.90;3.30;;;;;;;8.37;86.42;97736.94;5075300;28;20286;-72
2023/03/18 06:20:52;;;;;;;4.57;3.10;;;;;;;8.37;85.86;97740.38;5075279;28;20570;-72
2023/03/18 06:23:18;;;;;;;6.77;3.10;;;;;;;8.39;87.47;97741.00;5074797;28;20230;-72
2023/03/18 06:25:45;;;;;;;4.93;3.23;;;;;;;8.34;86.22;97745.31;5075328;28;20204;-72
2023/03/18 06:28:12;;;;;;;5.67;3.50;;;;;;;8.36;86.18;97745.88;5075085;28;20212;-72
2023/03/18 06:30:40;;;;;;;4.50;3.47;;;;;;;8.38;86.94;97742.00;5075041;28;20204;-72
2023/03/18 06:33:07;;;;;;;4.93;2.80;;;;;;;8.39;88.50;97756.91;5074958;28;20319;-72
2023/03/18 06:35:34;;;;;;;4.50;2.97;;;;;;;8.33;88.95;97754.28;5075149;28;20254;-72
2023/03/18 06:38:00;;;;;;;9.40;3.50;;;;;;;8.36;88.83;97749.38;5074715;28;20563;-72
2023/03/18 06:40:27;;;;;;;5.03;2.83;;;;;;;8.34;90.16;97753.25;5074768;28;20204;-72
2023/03/18 06:42:53;;;;;;;5.83;2.90;;;;;;;8.45;88.06;97748.09;5074672;28;20228;-72
2023/03/18 06:45:20;;;;;;;4.43;3.10;;;;;;;8.47;88.03;97748.69;5074720;28;20201;-72
2023/03/18 06:47:46;;;;;;;5.93;2.93;;;;;;;8.55;87.56;97751.09;5073375;28;20201;-72
2023/03/18 06:50:14;;;;;;;6.30;3.30;;;;;;;8.59;87.51;97754.09;5074896;28;20212;-72
2023/03/18 06:52:41;;;;;;;5.40;2.90;;;;;;;8.68;85.10;97756.31;5074600;28;20224;-72
2023/03/18 06:55:08;;;;;;;5.00;3.20;;;;;;;8.69;86.41;97751.81;5074443;28;20201;-72
2023/03/18 06:57:35;;;;;;;5.20;3.00;;;;;;;8.73;86.05;97753.81;5074230;28;20220;-72
2023/03/18 07:00:03;;;;;;;4.07;3.17;;;;;;;8.82;84.58;97752.53;5074393;28;20205;-72
2023/03/18 07:02:29;;;;;;;6.60;2.83;;;;;;;8.87;84.35;97752.69;5074154;28;20315;-72
2023/03/18 07:04:56;;;;;;;3.53;2.40;;;;;;;8.98;83.27;97759.16;5074479;28;20211;-72
2023/03/18 07:07:23;;;;;;;4.37;2.67;;;;;;;9.08;82.07;97748.84;5074839;28;20211;-72
2023/03/18 07:09:49;;;;;;;5.57;2.83;;;;;;;9.14;83.00;97764.72;5074084;28;20216;-72
2023/03/18 07:12:16;;;;;;;3.43;2.77;;;;;;;9.28;80.48;97766.22;5074206;28;20224;-72
2023/03/18 07:14:43;;;;;;;4.80;3.10;;;;;;;9.47;80.66;97762.59;5073728;28;20209;-72
2023/03/18 07:17:11;;;;;;;6.93;3.27;;;;;;;9.72;78.19;97758.03;5073654;28;20220;-72
2023/03/18 07:19:37;;;;;;;8.23;3.20;;;;;;;9.72;79.27;97757.22;5074183;28;20215;-72
2023/03/18 07:22:04;;;;;;;4.00;2.83;;;;;;;9.84;78.02;97771.41;5074250;28;20312;-72
2023/03/18 07:24:31;;;;;;;4.73;3.17;;;;;;;9.78;78.46;97759.00;5073613;28;20679;-72
2023/03/18 07:26:57;;;;;;;6.63;3.40;;;;;;;9.91;76.30;97762.31;5073834;28;20212;-72
2023/03/18 07:29:24;;;;;;;7.50;3.50;;;;;;;9.90;77.02;97767.84;5073762;28;20212;-72
2023/03/18 07:31:50;;;;;;;5.00;3.47;;;;;;;9.96;77.80;97767.78;5073415;28;20212;-72
2023/03/18 07:34:17;;;;;;;8.50;3.30;;;;;;;10.04;77.66;97764.84;5073565;28;20295;-72
2023/03/18 07:36:44;;;;;;;7.03;3.40;;;;;;;10.18;76.63;97768.19;5073491;28;20279;-73
2023/03/18 07:39:11;;;;;;;4.20;3.03;;;;;;;10.31;74.95;97778.63;5073470;28;20200;-72
2023/03/18 07:41:37;;;;;;;5.93;3.37;;;;;;;10.37;74.08;97785.72;5073479;28;20204;-73
2023/03/18 07:44:05;;;;;;;5.47;3.33;;;;;;;10.51;73.46;97790.63;5073633;28;20212;-72
2023/03/18 07:46:32;;;;;;;6.47;3.30;;;;;;;10.65;72.50;97784.13;5073191;28;20629;-73
2023/03/18 07:48:58;;;;;;;5.73;3.30;;;;;;;10.71;74.52;97780.53;5073479;28;20208;-73
2023/03/18 07:51:25;;;;;;;4.53;3.40;;;;;;;10.83;72.62;97786.72;5073154;28;20546;-73
2023/03/18 07:53:51;;;;;;;6.33;3.37;;;;;;;10.85;72.88;97787.28;5073444;28;20231;-73
2023/03/18 07:56:18;;;;;;;6.90;2.90;;;;;;;10.93;71.55;97794.94;5072838;28;20205;-73
2023/03/18 07:58:44;;;;;;;5.90;2.63;;;;;;;10.97;70.10;97784.66;5072880;28;20204;-73
2023/03/18 08:01:11;;;;;;;5.70;2.70;;;;;;;11.00;70.21;97785.00;5073872;28;20224;-73
2023/03/18 08:03:37;;;;;;;8.17;2.87;;;;;;;11.05;69.70;97785.13;5073353;28;20277;-73
2023/03/18 08:06:04;;;;;;;6.53;2.27;;;;;;;11.19;67.79;97783.09;5072983;28;20211;-73
2023/03/18 08:08:30;;;;;;;3.20;2.53;;;;;;;11.30;66.59;97789.47;5073052;28;20270;-73
2023/03/18 08:11:01;;;;;;;3.70;2.50;;;;;;;11.46;67.11;97789.59;5072902;28;20238;-73
2023/03/18 08:13:27;;;;;;;3.83;2.40;;;;;;;11.61;65.56;97787.31;5072774;28;20591;-73
2023/03/18 08:15:55;;;;;;;5.70;2.40;;;;;;;11.63;66.11;97785.25;5072874;28;20204;-73
2023/03/18 08:18:22;;;;;;;5.43;2.30;;;;;;;11.78;65.07;97788.25;5072897;28;20260;-73
2023/03/18 08:20:49;;;;;;;5.20;2.70;;;;;;;11.93;64.50;97790.44;5072884;28;20207;-73
2023/03/18 08:23:15;;;;;;;3.27;2.40;;;;;;;11.97;65.80;97792.38;5072974;28;20227;-73
2023/03/18 08:25:43;;;;;;;5.50;2.30;;;;;;;11.96;64.32;97795.28;5072179;28;20294;-73
2023/03/18 08:28:10;;;;;;;4.17;2.07;;;;;;;12.16;64.22;97803.72;5073038;28;20201;-73
2023/03/18 08:30:38;;;;;;;6.17;2.83;;;;;;;12.18;62.37;97794.44;5072930;28;20225;-73
2023/03/18 08:33:05;;;;;;;2.77;2.37;;;;;;;12.40;61.66;97795.44;5073081;28;20230;-73
2023/03/18 08:35:32;;;;;;;4.30;2.70;;;;;;;12.43;63.18;97791.47;5072195;28;20211;-73
2023/03/18 08:37:59;;;;;;;3.87;2.00;;;;;;;12.38;63.31;97786.84;5072505;28;20223;-73
2023/03/18 08:40:26;;;;;;;5.87;2.50;;;;;;;12.53;62.33;97784.47;5072726;28;20208;-73
2023/03/18 08:42:52;;;;;;;4.83;2.40;;;;;;;12.79;61.40;97789.25;5072724;28;20232;-73
2023/03/18 08:45:20;;;;;;;5.87;2.20;;;;;;;12.94;61.35;97786.03;5072773;28;20204;-73
2023/03/18 08:47:46;;;;;;;3.70;2.47;;;;;;;13.01;61.06;97782.19;5072285;28;20659;-73
2023/03/18 08:50:13;;;;;;;5.83;2.60;;;;;;;13.28;60.00;97785.03;5072658;28;20210;-73
2023/03/18 08:52:40;;;;;;;4.70;2.53;;;;;;;13.38;58.58;97787.91;5072451;28;20297;-73
2023/03/18 08:55:08;;;;;;;4.50;2.37;;;;;;;13.16;59.22;97779.78;5072176;28;20205;-73
2023/03/18 08:57:36;;;;;;;5.97;2.50;;;;;;;13.33;58.71;97782.44;5072550;28;20228;-73
2023/03/18 09:00:04;;;;;;;4.00;2.30;;;;;;;13.48;56.55;97770.16;5072286;28;20308;-73
2023/03/18 09:02:30;;;;;;;3.57;2.17;;;;;;;13.42;57.85;97778.34;5072237;28;20559;-73
2023/03/18 09:04:57;;;;;;;5.33;2.20;;;;;;;13.71;56.68;97769.19;5072257;28;20227;-73
2023/03/18 09:07:23;;;;;;;3.87;2.13;;;;;;;13.86;54.99;97769.38;5072592;28;20292;-73
2023/03/18 09:09:50;;;;;;;2.50;2.07;;;;;;;13.88;54.92;97772.63;5072384;28;20215;-73
2023/03/18 09:12:17;;;;;;;2.20;1.67;;;;;;;13.92;54.78;97779.06;5074721;28;20814;-73
2023/03/18 09:14:43;;;;;;;4.20;1.63;;;;;;;14.00;53.76;97773.31;5076133;28;20625;-73
2023/03/18 09:17:10;;;;;;;3.30;2.20;;;;;;;14.17;55.15;97761.53;5075770;28;20248;-73
2023/03/18 09:19:37;;;;;;;4.47;2.00;;;;;;;14.35;53.55;97765.78;5076726;28;20207;-73
2023/03/18 09:22:03;;;;;;;3.57;2.00;;;;;;;14.38;53.09;97766.06;5075898;28;20244;-73
2023/03/18 09:24:30;;;;;;;4.50;2.07;;;;;;;14.38;53.75;97765.28;5076281;28;20208;-73
2023/03/18 09:26:58;;;;;;;5.10;2.50;;;;;;;14.63;52.36;97768.22;5076081;28;20205;-73
2023/03/18 09:29:26;;;;;;;3.27;2.03;;;;;;;14.71;50.09;97767.78;5076135;28;20615;-73
2023/03/18 09:31:52;;;;;;;4.47;2.20;;;;;;;14.83;51.53;97763.91;5075779;28;20205;-73
2023/03/18 09:34:19;;;;;;;3.27;2.23;;;;;;;14.90;50.16;97761.03;5074668;28;20574;-73
2023/03/18 09:36:49;;;;;;;3.10;2.03;;;;;;;14.94;48.03;97759.47;5075294;28;20208;-73
2023/03/18 09:39:20;;;;;;;4.73;2.20;;;;;;;14.75;49.77;97760.88;5075713;28;20189;-73
2023/03/18 09:42:14;;;;;;;4.57;2.27;;;;;;;15.14;47.95;97762.31;5075338;28;20280;-73
2023/03/18 09:44:42;;;;;;;3.37;1.90;;;;;;;15.00;48.83;97759.25;5075482;28;20196;-73
2023/03/18 09:47:31;;;;;;;3.87;1.90;;;;;;;14.87;47.59;97759.66;5074735;28;20283;-73
2023/03/18 09:50:07;;;;;;;2.23;1.90;;;;;;;15.18;48.19;97761.56;5075645;28;20207;-73
2023/03/18 09:52:45;;;;;;;2.17;1.63;;;;;;;15.45;47.58;97759.66;5075341;28;20733;-73
2023/03/18 09:55:14;;;;;;;4.00;1.67;;;;;;;15.40;45.50;97756.97;5075045;28;20688;-73
2023/03/18 09:57:45;;;;;;;3.67;1.40;;;;;;;15.57;46.86;97744.22;5074590;28;20232;-73
2023/03/18 10:00:12;;;;;;;4.13;1.63;;;;;;;15.76;44.51;97740.06;5074167;28;20192;-73
2023/03/18 10:02:48;;;;;;;3.43;1.67;;;;;;;15.60;45.55;97743.69;5075109;28;20254;-72
2023/03/18 10:05:19;;;;;;;4.17;1.63;;;;;;;15.80;46.07;97737.66;5074706;28;20651;-73
2023/03/18 10:07:50;;;;;;;2.20;1.50;;;;;;;15.98;44.90;97738.03;5074967;28;20290;-73
2023/03/18 10:10:29;;;;;;;4.50;1.30;;;;;;;15.81;45.44;97732.03;5074963;28;20264;-73
2023/03/18 10:13:22;;;;;;;3.83;1.60;;;;;;;16.19;44.91;97731.69;5074535;28;20311;-73
2023/03/18 10:15:57;;;;;;;3.20;1.20;;;;;;;16.40;44.40;97730.72;5074269;28;20192;-73
2023/03/18 10:18:27;;;;;;;1.50;1.20;;;;;;;16.18;44.79;97730.06;5075072;28;20212;-73
2023/03/18 10:21:19;;;;;;;3.77;1.47;;;;;;;16.31;43.25;97731.47;5075092;28;20242;-73
2023/03/18 10:23:57;;;;;;;4.23;1.50;;;;;;;16.42;43.74;97730.47;5073590;28;20235;-73
2023/03/18 10:26:32;;;;;;;3.77;1.33;;;;;;;16.47;43.66;97731.28;5075160;28;20193;-73
2023/03/18 10:29:28;;;;;;;1.93;1.50;;;;;;;16.65;42.62;97730.78;5074396;28;20184;-73
2023/03/18 10:32:21;;;;;;;2.40;1.43;;;;;;;16.74;42.65;97723.81;5074348;28;20189;-73
2023/03/18 10:35:07;;;;;;;1.93;1.40;;;;;;;16.49;43.28;97726.47;5074365;28;20184;-73
2023/03/18 10:37:49;;;;;;;3.97;1.53;;;;;;;16.47;43.18;97735.84;5074422;28;20228;-73
2023/03/18 10:40:18;;;;;;;2.10;1.30;;;;;;;16.37;45.27;97731.22;5074515;28;20195;-73
2023/03/18 10:42:45;;;;;;;4.13;1.50;;;;;;;16.36;44.53;97737.66;5074297;28;20225;-73
2023/03/18 10:45:28;;;;;;;1.67;1.30;;;;;;;16.29;46.00;97728.25;5074201;28;20211;-73
2023/03/18 10:48:09;;;;;;;1.47;1.27;;;;;;;16.41;44.76;97724.28;5073984;28;20538;-73
2023/03/18 10:50:56;;;;;;;2.07;1.47;;;;;;;16.74;43.66;97715.78;5074111;28;20197;-73
2023/03/18 10:53:44;;;;;;;2.83;1.83;;;;;;;16.90;44.05;97720.09;5074152;28;20220;-73
2023/03/18 10:56:13;;;;;;;2.07;1.60;;;;;;;17.14;42.86;97717.72;5074315;28;20211;-73
2023/03/18 10:58:42;;;;;;;2.43;1.20;;;;;;;17.25;42.45;97713.94;5074157;28;20330;-74
2023/03/18 11:01:16;;;;;;;3.23;1.53;;;;;;;17.05;42.30;97711.25;5073768;28;20212;-74
2023/03/18 11:03:53;;;;;;;4.50;1.60;;;;;;;16.89;43.23;97707.75;5073954;28;20293;-74
2023/03/18 11:06:41;;;;;;;6.57;1.60;;;;;;;16.73;43.57;97695.38;5074037;28;20188;-74
2023/03/18 11:09:15;;;;;;;3.47;1.33;;;;;;;17.00;41.70;97703.19;5073263;28;20294;-74
2023/03/18 11:11:47;;;;;;;3.77;1.50;;;;;;;16.94;41.87;97707.75;5063016;28;20211;-74
2023/03/18 11:14:21;;;;;;;3.03;1.50;;;;;;;16.97;41.26;97701.84;5055953;28;20227;-74
2023/03/18 11:17:03;;;;;;;1.63;1.30;;;;;;;17.20;40.98;97689.75;5053071;28;20236;-74
2023/03/18 11:19:38;;;;;;;2.53;1.40;;;;;;;17.29;42.72;97694.31;5052701;28;20216;-74
2023/03/18 11:22:04;;;;;;;1.40;1.17;;;;;;;17.36;41.35;97689.47;5053647;28;20225;-74
2023/03/18 11:24:38;;;;;;;2.40;1.20;;;;;;;17.19;39.90;97683.56;5053619;28;20201;-74
2023/03/18 11:27:24;;;;;;;2.27;1.17;;;;;;;17.19;40.75;97678.19;5053801;28;20231;-74
2023/03/18 11:29:55;;;;;;;2.00;1.50;;;;;;;17.35;40.21;97679.81;5053779;28;20201;-74
2023/03/18 11:32:32;;;;;;;2.70;1.40;;;;;;;17.43;39.47;97663.19;5053410;28;20232;-74
2023/03/18 11:35:01;;;;;;;2.67;1.37;;;;;;;17.37;39.38;97677.66;5052576;28;20205;-73
2023/03/18 11:37:37;;;;;;;5.50;1.90;;;;;;;17.50;38.66;97674.44;5052722;28;20220;-74
2023/03/18 11:40:39;;;;;;;3.00;1.20;;;;;;;17.37;38.38;97663.41;5052930;28;20648;-74
2023/03/18 11:43:17;;;;;;;1.67;1.20;;;;;;;17.33;38.05;97663.13;5041578;28;20319;-74
2023/03/18 11:46:04;;;;;;;2.87;1.10;;;;;;;17.53;37.98;97662.34;5052820;28;20549;-74